Time;durP1;ratioP1;P1;durP2;ratioP2;P2;SDS_P1;SDS_P2;PMS_P1;PMS_P2;Temp;Humidity;BMP_temperature;BMP_pressure;BME280_temperature;BME280_humidity;BME280_pressure;Samples;Min_cycle;Max_cycle;Signal;HPM_P1;HPM_P2
2022/03/23 00:01:59;;;;;;;1.65;1.17;;;;;;;-1.49;50.21;96758.53;6370595;27;20424;-62
2022/03/23 00:05:03;;;;;;;3.97;1.80;;;;;;;-1.48;50.35;96759.38;6375503;27;20035;-62
2022/03/23 00:08:11;;;;;;;3.00;1.20;;;;;;;-1.45;49.93;96764.47;6376825;27;20039;-62
2022/03/23 00:11:18;;;;;;;2.50;1.15;;;;;;;-1.56;50.22;96762.09;6361997;27;20046;-62
2022/03/23 00:14:24;;;;;;;2.97;1.10;;;;;;;-1.62;50.72;96769.97;6377744;27;20050;-64
2022/03/23 00:17:29;;;;;;;3.60;1.05;;;;;;;-1.75;51.00;96760.75;6336868;27;20043;-61
2022/03/23 00:20:34;;;;;;;5.03;1.08;;;;;;;-1.73;50.98;96759.00;6377529;27;20137;-63
2022/03/23 00:23:40;;;;;;;2.75;1.00;;;;;;;-1.87;50.99;96754.94;6376637;27;20052;-63
2022/03/23 00:26:43;;;;;;;1.95;0.90;;;;;;;-1.93;52.07;96757.59;6363055;27;20043;-62
2022/03/23 00:29:50;;;;;;;1.63;0.90;;;;;;;-1.99;52.16;96752.56;6356332;27;20538;-64
2022/03/23 00:32:54;;;;;;;2.15;0.70;;;;;;;-2.04;51.82;96754.38;6378893;27;20039;-63
2022/03/23 00:36:00;;;;;;;3.72;1.38;;;;;;;-2.05;52.23;96758.69;6379753;27;20080;-62
2022/03/23 00:39:05;;;;;;;2.85;1.10;;;;;;;-1.99;52.30;96777.50;6377512;27;20034;-63
2022/03/23 00:42:10;;;;;;;1.60;1.10;;;;;;;-2.06;52.09;96771.63;6374953;27;20043;-62
2022/03/23 00:45:14;;;;;;;2.20;0.98;;;;;;;-2.07;52.46;96783.66;6375776;27;20193;-64
2022/03/23 00:48:19;;;;;;;2.80;1.15;;;;;;;-2.06;52.45;96784.50;6373996;27;20043;-66
2022/03/23 00:51:24;;;;;;;3.63;1.38;;;;;;;-2.10;52.96;96781.09;6375897;27;20074;-66
2022/03/23 00:54:30;;;;;;;3.70;1.02;;;;;;;-2.20;52.76;96773.56;6377826;27;20043;-67
2022/03/23 00:57:36;;;;;;;2.97;1.38;;;;;;;-2.22;52.97;96785.63;6379371;27;20043;-67
2022/03/23 01:00:43;;;;;;;2.05;1.00;;;;;;;-2.27;53.38;96783.94;6354454;27;20047;-65
2022/03/23 01:03:47;;;;;;;1.75;0.90;;;;;;;-2.45;53.81;96783.41;6376545;27;20038;-66
2022/03/23 01:06:54;;;;;;;1.85;0.98;;;;;;;-2.54;54.02;96786.97;6378210;27;20050;-59
2022/03/23 01:09:59;;;;;;;4.10;1.35;;;;;;;-2.69;54.62;96784.59;6386283;27;20126;-60
2022/03/23 01:13:06;;;;;;;2.25;0.95;;;;;;;-2.96;55.14;96794.41;6381386;27;20043;-60
2022/03/23 01:16:12;;;;;;;5.22;1.35;;;;;;;-3.05;55.56;96790.22;6385998;27;20039;-60
2022/03/23 01:19:22;;;;;;;2.33;0.95;;;;;;;-3.10;55.34;96789.44;6380734;27;20188;-60
2022/03/23 01:22:26;;;;;;;4.20;1.02;;;;;;;-2.94;55.21;96784.94;6387191;27;20057;-60
2022/03/23 01:25:32;;;;;;;3.33;1.17;;;;;;;-3.16;55.44;96784.38;6385807;27;20073;-60
2022/03/23 01:28:36;;;;;;;2.28;0.90;;;;;;;-3.36;55.83;96779.44;6385685;27;20038;-60
2022/03/23 01:31:43;;;;;;;3.65;1.20;;;;;;;-3.37;56.10;96775.16;6384223;27;20046;-60
2022/03/23 01:34:46;;;;;;;3.47;1.40;;;;;;;-3.51;56.61;96787.31;6392722;27;20043;-61
2022/03/23 01:37:53;;;;;;;3.78;1.58;;;;;;;-3.46;56.79;96795.84;6379528;27;20201;-60
2022/03/23 01:40:58;;;;;;;2.40;0.88;;;;;;;-3.59;56.87;96783.97;6388357;27;20043;-67
2022/03/23 01:44:25;;;;;;;3.13;2.08;;;;;;;-3.57;56.34;96797.69;6365860;27;20047;-60
2022/03/23 01:47:29;;;;;;;3.08;1.20;;;;;;;-3.67;56.78;96797.78;6377337;27;20043;-61
2022/03/23 01:50:36;;;;;;;3.03;1.48;;;;;;;-3.69;56.85;96801.25;6385238;27;20495;-61
2022/03/23 01:53:41;;;;;;;3.97;1.58;;;;;;;-3.68;56.89;96806.38;6379203;27;20134;-59
2022/03/23 01:56:48;;;;;;;2.95;1.20;;;;;;;-3.67;56.87;96817.50;6385118;27;20059;-60
2022/03/23 01:59:53;;;;;;;1.95;0.95;;;;;;;-3.77;56.86;96821.88;6370947;27;20561;-62
2022/03/23 02:02:59;;;;;;;2.15;1.00;;;;;;;-3.97;57.28;96814.34;6343380;27;20464;-61
2022/03/23 02:06:04;;;;;;;2.60;1.05;;;;;;;-4.03;57.60;96816.13;6385706;27;20035;-61
2022/03/23 02:09:11;;;;;;;4.05;1.27;;;;;;;-4.02;57.27;96820.38;6377947;27;20138;-60
2022/03/23 02:12:16;;;;;;;4.43;1.27;;;;;;;-4.03;57.32;96814.41;6374249;27;20043;-61
2022/03/23 02:15:26;;;;;;;4.65;1.45;;;;;;;-4.24;57.65;96799.19;6380579;27;20098;-61
2022/03/23 02:18:30;;;;;;;4.90;1.50;;;;;;;-4.16;57.84;96821.38;6363074;27;20043;-61
2022/03/23 02:21:36;;;;;;;2.17;1.42;;;;;;;-4.26;57.54;96822.28;6373525;27;20051;-61
2022/03/23 02:24:41;;;;;;;3.53;1.35;;;;;;;-4.23;57.91;96817.13;6360711;27;20039;-61
2022/03/23 02:27:46;;;;;;;5.72;1.42;;;;;;;-4.15;58.25;96804.22;6373946;27;20396;-60
2022/03/23 02:30:52;;;;;;;4.88;1.85;;;;;;;-4.15;57.92;96812.78;6378590;27;20049;-60
2022/03/23 02:33:58;;;;;;;5.18;1.70;;;;;;;-4.03;58.09;96818.69;6371371;27;20532;-61
2022/03/23 02:37:03;;;;;;;4.78;1.75;;;;;;;-3.81;57.26;96820.22;6385091;27;20536;-61
2022/03/23 02:40:08;;;;;;;3.55;1.35;;;;;;;-3.70;57.39;96813.25;6383935;27;20046;-61
2022/03/23 02:43:15;;;;;;;7.85;2.42;;;;;;;-3.65;57.36;96811.50;6365896;27;20691;-60
2022/03/23 02:46:21;;;;;;;4.95;2.10;;;;;;;-3.60;57.25;96806.28;6374642;27;20039;-61
2022/03/23 02:49:27;;;;;;;2.92;1.52;;;;;;;-3.57;57.03;96813.13;6379939;27;20043;-61
2022/03/23 02:52:33;;;;;;;4.00;1.60;;;;;;;-3.49;56.96;96811.31;6375258;27;20042;-62
2022/03/23 03:02:57;;;;;;;4.05;1.90;;;;;;;-3.31;56.75;96836.88;6250360;28;20127;-62
2022/03/23 03:06:05;;;;;;;4.75;1.92;;;;;;;-3.27;56.86;96825.66;6242356;28;20120;-60
2022/03/23 03:09:12;;;;;;;4.40;1.67;;;;;;;-3.24;56.37;96822.19;6379576;27;20075;-60
2022/03/23 03:12:17;;;;;;;5.75;1.45;;;;;;;-3.31;56.69;96831.72;6378383;27;20031;-61
2022/03/23 03:15:21;;;;;;;;;;;;;;;-3.21;56.12;96837.59;6389118;27;20154;-61
2022/03/23 03:18:26;;;;;;;2.63;1.40;;;;;;;-3.13;56.12;96834.94;6376573;27;19919;-59
2022/03/23 03:21:30;;;;;;;3.20;1.50;;;;;;;-3.25;56.24;96831.66;6384715;27;20517;-60
2022/03/23 03:24:37;;;;;;;4.22;1.38;;;;;;;-3.30;56.41;96823.13;6362947;27;20050;-62
2022/03/23 03:27:44;;;;;;;2.40;1.00;;;;;;;-3.28;56.42;96834.25;6378417;27;20030;-61
2022/03/23 03:30:50;;;;;;;6.45;1.58;;;;;;;-3.24;55.98;96847.94;6374162;27;20054;-59
2022/03/23 03:33:57;;;;;;;2.60;1.15;;;;;;;-3.17;55.85;96847.84;6388402;27;20129;-62
2022/03/23 03:37:02;;;;;;;2.85;1.52;;;;;;;-3.19;56.00;96852.16;6382428;27;20522;-59
2022/03/23 03:40:08;;;;;;;4.07;1.48;;;;;;;-3.04;55.90;96845.97;6373718;27;20027;-60
2022/03/23 03:43:15;;;;;;;4.75;1.58;;;;;;;-3.10;56.08;96855.50;6375315;27;20416;-60
2022/03/23 03:46:21;;;;;;;2.67;1.60;;;;;;;-3.09;55.96;96872.63;6381330;27;20415;-61
2022/03/23 03:49:26;;;;;;;2.83;1.20;;;;;;;-3.40;55.99;96816.34;6374429;27;20046;-61
2022/03/23 03:52:32;;;;;;;3.67;1.40;;;;;;;-2.91;55.50;96857.00;6372385;27;20062;-59
2022/03/23 03:55:39;;;;;;;5.95;2.42;;;;;;;-2.86;55.11;96857.78;6377785;27;20043;-61
2022/03/23 03:58:43;;;;;;;2.72;1.60;;;;;;;-2.95;55.36;96861.31;6377303;27;20449;-58
2022/03/23 04:01:48;;;;;;;;;;;;;;;-2.67;54.77;96870.44;6377825;27;20114;-61
2022/03/23 04:04:53;;;;;;;3.63;1.45;;;;;;;-2.78;55.15;96868.81;6384266;27;19926;-61
2022/03/23 04:07:58;;;;;;;3.45;1.20;;;;;;;-2.78;55.25;96873.97;6374303;27;20035;-60
2022/03/23 04:11:01;;;;;;;3.15;1.60;;;;;;;-2.58;55.03;96870.28;6367067;27;20042;-61
2022/03/23 04:14:05;;;;;;;;;;;;;;;-2.47;54.51;96868.44;6371218;27;20047;-61
2022/03/23 04:17:10;;;;;;;3.63;1.83;;;;;;;-2.50;54.51;96873.63;6374348;27;19925;-60
2022/03/23 04:20:15;;;;;;;4.93;2.20;;;;;;;-2.38;54.63;96873.44;6373178;27;20055;-60
2022/03/23 04:23:20;;;;;;;5.18;1.60;;;;;;;-2.22;54.51;96868.94;6373260;27;20101;-60
2022/03/23 04:26:25;;;;;;;2.92;1.80;;;;;;;-2.23;54.25;96871.56;6371455;27;20035;-61
2022/03/23 04:29:30;;;;;;;5.00;1.83;;;;;;;-2.02;54.15;96876.38;6370479;27;20408;-61
2022/03/23 04:32:36;;;;;;;5.70;1.90;;;;;;;-1.99;53.68;96871.16;6371164;27;20112;-60
2022/03/23 04:35:41;;;;;;;4.35;2.05;;;;;;;-1.89;53.78;96882.22;6371873;27;20042;-61
2022/03/23 04:38:46;;;;;;;4.60;1.80;;;;;;;-1.80;53.61;96882.06;6369415;27;20051;-59
2022/03/23 04:41:51;;;;;;;4.10;1.88;;;;;;;-1.71;53.47;96884.47;6372103;27;20042;-60
2022/03/23 04:44:56;;;;;;;5.55;2.10;;;;;;;-1.70;53.35;96877.59;6368425;27;20043;-59
2022/03/23 04:48:01;;;;;;;5.75;2.00;;;;;;;-1.60;53.37;96874.00;6373901;27;20039;-61
2022/03/23 04:51:07;;;;;;;5.32;1.85;;;;;;;-1.62;53.22;96873.16;6374192;27;20042;-61
2022/03/23 04:54:12;;;;;;;3.65;1.60;;;;;;;-1.46;52.77;96887.50;6371979;27;20517;-60
2022/03/23 04:57:19;;;;;;;2.55;1.40;;;;;;;-1.50;53.09;96872.97;6358228;27;20047;-60
2022/03/23 05:00:23;;;;;;;7.28;1.80;;;;;;;-1.40;53.02;96882.25;6374806;27;20038;-57
2022/03/23 05:03:30;;;;;;;5.32;1.67;;;;;;;-1.18;52.19;96881.88;6374682;27;20776;-60
2022/03/23 05:06:33;;;;;;;5.78;2.33;;;;;;;-1.09;52.02;96886.84;6372069;27;20031;-61
2022/03/23 05:09:37;;;;;;;4.40;2.10;;;;;;;-1.15;51.93;96897.31;6355908;27;20050;-61
2022/03/23 05:12:45;;;;;;;7.03;2.08;;;;;;;-1.08;51.96;96885.97;6373164;27;20838;-60
2022/03/23 05:15:51;;;;;;;4.03;1.55;;;;;;;-0.92;51.66;96896.88;6338048;27;20491;-61
2022/03/23 05:18:56;;;;;;;6.32;2.50;;;;;;;-0.86;51.88;96896.75;6374980;27;20042;-60
2022/03/23 05:22:01;;;;;;;5.57;2.28;;;;;;;-0.74;51.47;96898.22;6371414;27;20747;-62
2022/03/23 05:25:06;;;;;;;6.68;1.23;;;;;;;-0.42;50.89;96901.91;6374895;27;20039;-61
2022/03/23 05:28:11;;;;;;;7.70;2.60;;;;;;;-0.55;50.92;96915.06;6356750;27;20046;-61
2022/03/23 05:31:16;;;;;;;4.53;1.90;;;;;;;-0.47;50.54;96909.75;6373995;27;20041;-61
2022/03/23 05:34:21;;;;;;;5.88;2.08;;;;;;;-0.48;50.44;96910.66;6378199;27;20046;-61
2022/03/23 05:37:26;;;;;;;3.25;1.25;;;;;;;-0.25;50.21;96897.25;6371934;27;20043;-61
2022/03/23 05:40:31;;;;;;;4.35;2.17;;;;;;;-0.08;50.44;96915.81;6371705;27;20862;-61
2022/03/23 05:43:35;;;;;;;5.50;2.30;;;;;;;2.92;45.18;96911.75;6375756;27;20130;-60
2022/03/23 05:46:40;;;;;;;2.65;1.42;;;;;;;7.72;35.03;96904.94;6371482;27;20523;-61
2022/03/23 05:49:45;;;;;;;3.30;2.33;;;;;;;10.95;29.91;96895.44;6355437;27;20051;-61
2022/03/23 05:52:49;;;;;;;4.82;2.45;;;;;;;13.79;26.55;96926.25;6372404;27;20410;-60
2022/03/23 05:55:53;;;;;;;4.82;2.97;;;;;;;15.97;23.62;96935.09;6375949;27;20576;-62
2022/03/23 05:58:58;;;;;;;4.07;2.08;;;;;;;17.74;21.59;96933.50;6376464;27;20038;-61
2022/03/23 06:02:03;;;;;;;4.38;2.40;;;;;;;19.41;18.93;96927.25;6360127;27;20034;-61
2022/03/23 06:05:09;;;;;;;6.47;2.10;;;;;;;20.44;17.98;96932.84;6375528;27;20326;-61
2022/03/23 06:08:10;;;;;;;6.43;2.92;;;;;;;20.68;17.71;96934.81;6374479;27;20051;-61
2022/03/23 06:11:12;;;;;;;4.18;1.98;;;;;;;22.33;16.69;96930.28;6372309;27;20796;-61
2022/03/23 06:14:15;;;;;;;4.20;1.55;;;;;;;23.31;15.33;96932.56;6370337;27;20051;-63
2022/03/23 06:17:18;;;;;;;3.22;1.60;;;;;;;24.69;14.92;96926.13;6375345;27;20126;-62
2022/03/23 06:20:25;;;;;;;4.82;1.70;;;;;;;26.58;13.72;96937.50;6372050;27;21838;-61
2022/03/23 06:23:26;;;;;;;2.03;1.65;;;;;;;27.71;12.52;96930.69;6373455;27;20062;-61
2022/03/23 06:26:30;;;;;;;3.22;1.35;;;;;;;28.14;11.19;96922.19;6373128;27;20054;-61
2022/03/23 06:29:33;;;;;;;3.80;1.48;;;;;;;28.35;11.34;96928.41;6372474;27;20042;-61
2022/03/23 06:32:41;;;;;;;3.45;1.63;;;;;;;29.04;10.77;96911.56;6373845;27;20583;-61
2022/03/23 06:35:48;;;;;;;2.88;1.33;;;;;;;30.13;10.52;96904.19;6373515;27;20078;-62
2022/03/23 06:38:50;;;;;;;5.43;1.48;;;;;;;30.41;10.02;96901.03;6373671;27;20053;-61
2022/03/23 06:41:54;;;;;;;3.40;1.38;;;;;;;29.96;10.18;96901.22;6373581;27;20035;-61
2022/03/23 06:44:55;;;;;;;3.80;1.27;;;;;;;30.37;9.73;96893.56;6374841;27;20138;-62
2022/03/23 06:47:59;;;;;;;2.10;1.25;;;;;;;30.41;9.21;96895.63;6367228;27;20524;-62
2022/03/23 06:51:05;;;;;;;2.30;1.00;;;;;;;29.96;9.66;96893.09;6372441;27;20039;-62
2022/03/23 06:54:06;;;;;;;2.88;1.02;;;;;;;30.27;9.48;96882.41;6373422;27;21795;-62
2022/03/23 06:57:13;;;;;;;3.13;1.40;;;;;;;30.79;9.31;96897.28;6370984;27;20047;-61
2022/03/23 07:00:20;;;;;;;5.57;1.63;;;;;;;30.82;9.34;96896.84;6373496;27;20039;-62
2022/03/23 07:03:24;;;;;;;2.78;1.25;;;;;;;30.90;8.83;96906.56;6371983;27;20034;-61
2022/03/23 07:06:26;;;;;;;2.65;1.20;;;;;;;31.30;9.00;96904.16;6374483;27;20503;-61
2022/03/23 07:09:31;;;;;;;2.78;1.27;;;;;;;31.67;8.58;96920.41;6376400;27;20043;-62
2022/03/23 07:12:35;;;;;;;2.30;1.05;;;;;;;31.15;8.51;96902.94;6375793;27;20034;-62
2022/03/23 07:15:42;;;;;;;2.45;0.88;;;;;;;30.65;8.75;96912.88;6377157;27;20035;-61
2022/03/23 07:18:46;;;;;;;2.38;0.98;;;;;;;29.93;8.92;96896.25;6374936;27;20043;-61
2022/03/23 07:21:50;;;;;;;2.80;1.08;;;;;;;29.59;8.93;96907.53;6374548;27;20485;-61
2022/03/23 07:24:58;;;;;;;2.92;1.42;;;;;;;28.84;9.37;96910.81;6372405;27;20043;-61
2022/03/23 07:28:04;;;;;;;2.17;0.90;;;;;;;29.16;9.27;96898.22;6377118;27;20065;-61
2022/03/23 07:31:10;;;;;;;2.70;1.10;;;;;;;30.36;8.92;96903.59;6375445;27;20039;-62
2022/03/23 07:34:18;;;;;;;3.00;0.93;;;;;;;31.63;8.53;96902.06;6378413;27;20496;-61
2022/03/23 07:37:22;;;;;;;1.88;0.90;;;;;;;32.50;7.74;96902.31;6373497;27;20046;-62
2022/03/23 07:40:24;;;;;;;2.00;1.70;;;;;;;34.04;7.13;96894.41;6375042;27;20043;-62
2022/03/23 07:43:33;;;;;;;2.22;1.25;;;;;;;35.30;6.52;96907.38;6375983;27;20487;-62
2022/03/23 07:46:37;;;;;;;2.90;1.30;;;;;;;35.17;6.43;96900.41;6374052;27;20046;-62
2022/03/23 07:49:44;;;;;;;3.75;1.77;;;;;;;32.42;8.14;96905.38;6372712;27;20450;-62
2022/03/23 07:52:51;;;;;;;2.35;1.70;;;;;;;32.40;7.92;96902.06;6356975;27;20046;-62
2022/03/23 07:55:58;;;;;;;3.05;1.45;;;;;;;33.37;7.82;96904.13;6372259;27;20412;-62
2022/03/23 07:59:00;;;;;;;4.07;1.00;;;;;;;35.45;6.73;96909.47;6374393;27;20484;-62
2022/03/23 08:02:04;;;;;;;4.40;1.10;;;;;;;37.30;6.16;96907.81;6372518;27;20397;-63
2022/03/23 08:05:07;;;;;;;4.18;1.10;;;;;;;38.34;5.69;96899.44;6373241;27;20573;-61
2022/03/23 08:08:10;;;;;;;5.80;1.40;;;;;;;38.57;5.70;96898.06;6371023;27;20043;-62
2022/03/23 08:11:14;;;;;;;1.15;0.70;;;;;;;38.25;5.68;96892.06;6370916;27;20039;-62
2022/03/23 08:14:22;;;;;;;3.03;0.82;;;;;;;38.11;5.67;96900.03;6372049;27;20051;-62
2022/03/23 08:17:26;;;;;;;0.88;0.60;;;;;;;37.56;5.87;96887.88;6372461;27;20038;-61
2022/03/23 08:20:33;;;;;;;3.30;0.70;;;;;;;36.55;5.88;96885.28;6371650;27;20038;-62
2022/03/23 08:23:38;;;;;;;1.35;0.68;;;;;;;35.83;5.97;96874.81;6370878;27;20054;-63
2022/03/23 08:26:40;;;;;;;1.25;0.75;;;;;;;34.61;6.31;96861.41;6375467;27;20058;-61
2022/03/23 08:29:44;;;;;;;1.70;0.70;;;;;;;33.52;6.92;96859.97;6376020;27;20078;-62
2022/03/23 08:32:48;;;;;;;3.00;0.90;;;;;;;33.21;7.50;96861.28;6378434;27;20051;-61
2022/03/23 08:35:53;;;;;;;2.55;0.90;;;;;;;34.26;6.70;96862.56;6378804;27;20169;-61
2022/03/23 08:38:57;;;;;;;2.28;1.30;;;;;;;35.08;6.50;96866.41;6378385;27;20055;-62
2022/03/23 08:42:04;;;;;;;3.50;0.80;;;;;;;34.69;6.52;96874.66;6377463;27;20035;-61
2022/03/23 08:45:06;;;;;;;5.30;3.20;;;;;;;34.20;6.60;96871.75;6372018;27;20051;-62
2022/03/23 08:48:10;;;;;;;1.80;0.98;;;;;;;34.39;6.70;96873.09;6375960;27;20038;-60
2022/03/23 08:51:16;;;;;;;1.98;0.80;;;;;;;34.80;6.36;96870.97;6374681;27;20031;-62
2022/03/23 08:54:22;;;;;;;1.65;0.90;;;;;;;34.84;6.41;96871.28;6375379;27;20580;-62
2022/03/23 08:57:27;;;;;;;2.85;1.33;;;;;;;33.79;7.11;96865.59;6374970;27;20042;-61
2022/03/23 09:00:30;;;;;;;2.80;1.80;;;;;;;33.90;6.71;96859.25;6371091;27;20443;-61
2022/03/23 09:03:39;;;;;;;2.33;0.80;;;;;;;34.69;6.42;96862.91;6372610;27;20415;-61
2022/03/23 09:06:48;;;;;;;1.92;1.10;;;;;;;35.24;6.39;96870.13;6376250;27;22735;-61
2022/03/23 09:09:52;;;;;;;2.17;0.88;;;;;;;34.90;6.38;96858.50;6376126;27;20066;-61
2022/03/23 09:12:54;;;;;;;1.45;0.82;;;;;;;35.45;6.47;96846.56;6368450;27;20053;-61
2022/03/23 09:15:55;;;;;;;1.92;0.88;;;;;;;35.98;6.39;96847.56;6376863;27;20046;-62
2022/03/23 09:18:56;;;;;;;2.80;1.20;;;;;;;35.96;6.15;96844.28;6371926;27;20039;-61
2022/03/23 09:22:00;;;;;;;1.70;0.90;;;;;;;34.77;6.65;96855.06;6373881;27;20043;-62
2022/03/23 09:25:07;;;;;;;7.20;2.92;;;;;;;34.93;6.67;96855.25;6375326;27;20051;-62
2022/03/23 09:28:12;;;;;;;5.05;1.10;;;;;;;35.33;6.45;96834.91;6371224;27;20050;-61
2022/03/23 09:31:16;;;;;;;2.45;1.17;;;;;;;35.19;6.26;96831.78;6374368;27;20043;-62
2022/03/23 09:34:20;;;;;;;2.42;0.77;;;;;;;33.56;7.01;96828.41;6372976;27;20073;-61
2022/03/23 09:40:53;;;;;;;1.17;0.95;;;;;;;32.91;7.31;96821.44;6377185;27;20035;-62
2022/03/23 09:43:55;;;;;;;3.90;1.23;;;;;;;32.82;7.31;96823.72;6353508;27;20039;-62
2022/03/23 09:46:57;;;;;;;3.58;1.13;;;;;;;32.91;7.48;96810.53;6374551;27;20038;-60
2022/03/23 09:49:58;;;;;;;1.80;0.90;;;;;;;32.29;7.74;96802.16;6374675;27;20155;-61
2022/03/23 09:53:00;;;;;;;2.78;1.10;;;;;;;31.99;7.55;96803.13;6371095;27;20096;-62
2022/03/23 09:56:04;;;;;;;2.55;0.73;;;;;;;30.76;8.02;96804.53;6375196;27;20065;-63
2022/03/23 09:59:08;;;;;;;1.40;0.60;;;;;;;29.68;8.56;96804.03;6368416;27;20181;-63
2022/03/23 10:02:40;;;;;;;2.10;1.02;;;;;;;28.99;9.01;96800.31;6373424;27;20050;-63
2022/03/23 10:06:18;;;;;;;2.58;0.93;;;;;;;27.87;9.64;96804.25;6368937;27;20046;-65
2022/03/23 10:09:44;;;;;;;3.38;1.20;;;;;;;26.88;10.71;96798.53;6372748;27;20050;-66
2022/03/23 10:13:39;;;;;;;2.55;1.58;;;;;;;25.93;11.02;96794.78;6369973;27;20035;-65
2022/03/23 10:17:09;;;;;;;2.25;1.33;;;;;;;25.41;11.41;96779.88;6351332;27;20499;-64
2022/03/23 10:20:14;;;;;;;2.55;1.30;;;;;;;25.14;11.32;96786.03;6374536;27;20512;-66
2022/03/23 10:23:23;;;;;;;2.60;1.00;;;;;;;25.52;11.17;96773.94;6372544;27;20058;-66
2022/03/23 10:26:27;;;;;;;2.17;1.20;;;;;;;25.81;11.07;96774.75;6369607;27;20427;-68
2022/03/23 10:29:32;;;;;;;2.33;1.00;;;;;;;25.53;11.21;96770.25;6353955;27;20034;-67
2022/03/23 10:32:42;;;;;;;1.83;0.88;;;;;;;25.08;11.51;96777.72;6373434;27;20038;-68
2022/03/23 10:35:51;;;;;;;2.65;0.80;;;;;;;25.02;11.64;96770.38;6376760;27;20042;-68
2022/03/23 10:39:02;;;;;;;2.17;0.95;;;;;;;24.75;12.11;96766.63;6373022;27;20397;-67
2022/03/23 10:42:09;;;;;;;3.08;1.05;;;;;;;24.54;12.55;96766.59;6370286;27;20047;-64
2022/03/23 10:45:21;;;;;;;2.28;1.20;;;;;;;24.83;12.22;96754.91;6371817;27;20054;-69
2022/03/23 10:48:27;;;;;;;4.72;3.03;;;;;;;25.53;11.88;96762.16;6371720;27;20035;-66
2022/03/23 10:51:35;;;;;;;3.80;1.80;;;;;;;25.57;11.58;96754.50;6372254;27;20031;-70
2022/03/23 10:54:55;;;;;;;2.40;1.40;;;;;;;25.76;12.06;96766.47;6358616;27;20035;-69
2022/03/23 10:58:03;;;;;;;2.42;0.90;;;;;;;26.11;11.51;96753.00;6370949;27;20507;-65
2022/03/23 11:01:09;;;;;;;2.17;0.63;;;;;;;24.85;12.03;96734.00;6372100;27;20050;-66
2022/03/23 11:04:13;;;;;;;3.78;1.02;;;;;;;23.73;12.85;96720.91;6371254;27;20466;-65
2022/03/23 11:07:24;;;;;;;2.92;1.00;;;;;;;23.40;13.33;96715.00;6375509;27;20072;-66
2022/03/23 11:17:27;;;;;;;;;;;;;;;24.27;12.74;96743.91;6372018;27;20129;-63
2022/03/23 11:20:49;;;;;;;2.20;0.93;;;;;;;23.07;13.55;96743.00;6375275;27;20396;-64
2022/03/23 11:23:50;;;;;;;2.28;0.90;;;;;;;21.86;14.13;96740.84;6366439;27;20047;-63
2022/03/23 11:26:52;;;;;;;2.42;0.93;;;;;;;21.18;14.64;96760.06;6373294;27;20123;-64
2022/03/23 11:29:56;;;;;;;1.92;0.90;;;;;;;20.96;14.81;96767.75;6372014;27;20070;-64
2022/03/23 11:33:00;;;;;;;3.60;0.90;;;;;;;20.01;15.58;96748.47;6373186;27;20043;-64
2022/03/23 11:36:09;;;;;;;2.92;1.00;;;;;;;19.56;16.11;96772.75;6371127;27;20043;-64
2022/03/23 11:39:13;;;;;;;2.53;1.10;;;;;;;19.73;16.03;96764.72;6372491;27;20050;-63
2022/03/23 11:42:22;;;;;;;2.80;1.25;;;;;;;19.40;15.95;96768.19;6371596;27;20043;-64
2022/03/23 11:45:25;;;;;;;3.15;1.90;;;;;;;19.58;16.01;96765.44;6354108;27;20054;-64
2022/03/23 11:48:31;;;;;;;2.95;2.03;;;;;;;19.31;16.34;96771.78;6362640;27;20065;-64
2022/03/23 11:51:50;;;;;;;6.78;1.42;;;;;;;19.58;16.19;96779.63;6369412;27;20047;-64
2022/03/23 11:58:37;;;;;;;3.97;1.75;;;;;;;17.97;17.34;96768.16;6369951;27;20053;-65
2022/03/23 12:01:41;;;;;;;4.22;2.08;;;;;;;16.70;18.58;96756.94;6376132;27;20043;-64
2022/03/23 12:04:45;;;;;;;2.67;1.92;;;;;;;16.56;18.74;96756.41;6374534;27;20054;-64
2022/03/23 12:07:50;;;;;;;4.05;2.30;;;;;;;16.54;18.49;96749.53;6376600;27;20411;-64
2022/03/23 12:10:55;;;;;;;2.63;1.60;;;;;;;16.45;18.55;96756.53;6372486;27;20058;-65
2022/03/23 12:14:00;;;;;;;2.40;0.93;;;;;;;17.31;18.00;96767.25;6376159;27;20031;-64
2022/03/23 12:17:27;;;;;;;2.30;1.33;;;;;;;18.24;17.52;96765.47;6372344;27;20050;-64
2022/03/23 12:20:38;;;;;;;2.53;1.13;;;;;;;18.47;17.02;96767.72;6376702;27;20043;-63
2022/03/23 12:23:57;;;;;;;2.13;0.70;;;;;;;17.93;17.28;96763.13;6372966;27;20419;-64
2022/03/23 12:27:07;;;;;;;2.58;1.13;;;;;;;17.28;17.87;96772.84;6372849;27;20035;-64
2022/03/23 12:30:30;;;;;;;2.38;1.27;;;;;;;16.88;18.50;96775.72;6374352;27;20515;-64
2022/03/23 12:33:59;;;;;;;1.98;1.23;;;;;;;16.56;18.70;96777.66;6376174;27;20043;-64
2022/03/23 12:37:09;;;;;;;2.63;0.80;;;;;;;16.22;19.19;96774.53;6375588;27;20054;-64
2022/03/23 12:40:13;;;;;;;3.17;1.30;;;;;;;16.25;19.25;96773.41;6377508;27;20039;-64
2022/03/23 12:43:36;;;;;;;3.50;1.00;;;;;;;16.34;19.42;96767.28;6373209;27;20061;-65
2022/03/23 12:46:44;;;;;;;2.88;1.02;;;;;;;16.05;19.49;96778.69;6374814;27;20077;-64
2022/03/23 13:00:30;;;;;;;2.75;1.23;;;;;;;13.22;22.18;96781.72;6359198;27;20043;-63
2022/03/23 13:03:32;;;;;;;3.78;1.25;;;;;;;12.86;22.39;96788.00;6377499;27;20452;-63
2022/03/23 13:06:40;;;;;;;1.58;0.80;;;;;;;12.20;22.54;96784.94;6377107;27;20071;-63
2022/03/23 13:09:44;;;;;;;3.10;1.08;;;;;;;11.18;23.95;96784.16;6376785;27;20811;-64
2022/03/23 13:12:48;;;;;;;2.28;1.00;;;;;;;10.61;24.20;96796.81;6373938;27;20054;-64
2022/03/23 13:15:54;;;;;;;1.77;1.02;;;;;;;10.32;24.34;96781.16;6375484;27;20030;-64
2022/03/23 13:19:02;;;;;;;1.50;1.08;;;;;;;9.89;25.07;96771.59;6375342;27;20035;-64
2022/03/23 13:22:04;;;;;;;1.15;0.82;;;;;;;9.28;26.25;96769.31;6374661;27;20054;-63
2022/03/23 13:25:09;;;;;;;2.25;0.93;;;;;;;8.83;27.02;96777.28;6374293;27;20039;-65
2022/03/23 13:28:16;;;;;;;1.98;1.10;;;;;;;8.14;28.54;96772.53;6373864;27;20601;-64
2022/03/23 13:31:31;;;;;;;2.55;1.10;;;;;;;7.63;29.61;96773.56;6353678;27;20034;-64
2022/03/23 13:34:37;;;;;;;3.35;1.13;;;;;;;7.23;30.58;96774.03;6373950;27;20051;-63
2022/03/23 13:38:05;;;;;;;1.20;0.90;;;;;;;6.98;31.00;96767.47;6354909;27;20051;-62
2022/03/23 13:44:55;;;;;;;2.20;1.30;;;;;;;6.59;32.36;96784.25;6369989;27;20047;-70
2022/03/23 13:48:06;;;;;;;2.33;1.40;;;;;;;6.26;32.96;96766.75;6373406;27;20058;-64
2022/03/23 13:51:09;;;;;;;4.22;1.90;;;;;;;6.05;33.32;96783.44;6376677;27;20035;-63
2022/03/23 13:54:20;;;;;;;4.38;1.40;;;;;;;5.89;34.21;96778.09;6373885;27;20038;-63
2022/03/23 13:57:22;;;;;;;3.38;1.10;;;;;;;5.81;33.65;96781.06;6375675;27;20042;-67
2022/03/23 14:00:26;;;;;;;3.60;1.17;;;;;;;5.74;33.73;96790.09;6370919;27;20514;-62
2022/03/23 14:03:36;;;;;;;3.83;1.50;;;;;;;5.75;33.90;96786.59;6372585;27;20070;-67
2022/03/23 14:06:43;;;;;;;1.75;1.10;;;;;;;5.56;34.36;96789.19;6376388;27;20051;-61
2022/03/23 14:09:48;;;;;;;2.00;1.25;;;;;;;5.40;34.46;96802.09;6374963;27;20043;-61
2022/03/23 14:12:50;;;;;;;3.47;1.50;;;;;;;5.22;34.73;96805.53;6370253;27;20408;-61
2022/03/23 14:15:57;;;;;;;3.58;1.52;;;;;;;5.07;35.56;96811.44;6370869;27;20043;-65
2022/03/23 14:19:03;;;;;;;4.90;2.08;;;;;;;4.89;36.33;96805.25;6357054;27;20809;-65
2022/03/23 14:22:09;;;;;;;3.75;1.80;;;;;;;4.74;36.57;96822.41;6376107;27;20406;-63
2022/03/23 14:25:12;;;;;;;2.83;1.33;;;;;;;4.61;36.61;96818.63;6377807;27;20079;-63
2022/03/23 14:28:25;;;;;;;1.80;0.95;;;;;;;4.52;36.75;96822.44;6369503;27;20051;-62
2022/03/23 14:31:29;;;;;;;2.35;1.17;;;;;;;4.40;36.99;96823.81;6370973;27;20038;-64
2022/03/23 14:34:31;;;;;;;2.33;1.30;;;;;;;4.23;37.10;96839.28;6371031;27;20047;-64
2022/03/23 14:37:39;;;;;;;2.28;1.08;;;;;;;4.08;38.26;96843.34;6373482;27;20168;-63
2022/03/23 14:40:55;;;;;;;3.28;1.20;;;;;;;3.85;38.74;96844.25;6372548;27;20464;-64
2022/03/23 14:44:01;;;;;;;2.58;1.23;;;;;;;3.77;38.90;96843.69;6369038;27;20076;-64
2022/03/23 14:47:07;;;;;;;2.90;1.30;;;;;;;3.68;39.29;96838.81;6351272;27;20047;-64
2022/03/23 14:50:11;;;;;;;3.00;1.17;;;;;;;3.62;39.33;96839.06;6372829;27;20035;-63
2022/03/23 14:53:13;;;;;;;2.40;1.20;;;;;;;3.59;39.65;96835.69;6372154;27;20442;-64
2022/03/23 14:56:20;;;;;;;3.30;1.10;;;;;;;3.54;39.83;96848.00;6374069;27;20031;-63
2022/03/23 14:59:26;;;;;;;1.67;1.05;;;;;;;3.36;39.92;96838.28;6378275;27;20538;-64
2022/03/23 15:02:29;;;;;;;3.10;1.30;;;;;;;3.24;39.95;96842.19;6377619;27;20054;-63
2022/03/23 15:15:45;;;;;;;4.93;1.67;;;;;;;3.02;40.82;96855.09;6373225;27;20050;-62
2022/03/23 15:18:47;;;;;;;3.55;1.55;;;;;;;3.05;40.54;96861.94;6371464;27;20031;-64
2022/03/23 15:21:56;;;;;;;2.08;1.45;;;;;;;3.10;40.52;96858.28;6372761;27;20081;-62
2022/03/23 15:25:01;;;;;;;4.22;1.30;;;;;;;3.10;40.42;96868.66;6368249;27;20049;-63
2022/03/23 15:28:04;;;;;;;2.83;1.50;;;;;;;3.16;40.57;96878.00;6369357;27;20098;-63